sensor_id;sensor_type;location;lat;lon;timestamp;P1;durP1;ratioP1;P2;durP2;ratioP2
40815;SDS011;26535;48.788;9.214;2023-06-14T05:04:03;8.93;;;4.95;;
40815;SDS011;26535;48.788;9.214;2023-06-14T05:06:29;7.97;;;4.55;;
40815;SDS011;26535;48.788;9.214;2023-06-14T05:08:56;6.97;;;4.00;;
40815;SDS011;26535;48.788;9.214;2023-06-14T05:11:22;6.50;;;4.45;;
40815;SDS011;26535;48.788;9.214;2023-06-14T05:13:49;6.60;;;4.10;;
40815;SDS011;26535;48.788;9.214;2023-06-14T05:16:17;9.23;;;4.75;;
40815;SDS011;26535;48.788;9.214;2023-06-14T05:18:44;7.88;;;4.85;;
40815;SDS011;26535;48.788;9.214;2023-06-14T05:21:12;8.52;;;4.80;;
40815;SDS011;26535;48.788;9.214;2023-06-14T05:23:41;9.05;;;4.47;;
40815;SDS011;26535;48.788;9.214;2023-06-14T05:26:06;9.38;;;4.60;;
40815;SDS011;26535;48.788;9.214;2023-06-14T05:28:32;8.23;;;3.97;;
40815;SDS011;26535;48.788;9.214;2023-06-14T05:30:58;8.05;;;4.65;;
40815;SDS011;26535;48.788;9.214;2023-06-14T05:33:24;7.72;;;4.97;;
40815;SDS011;26535;48.788;9.214;2023-06-14T05:35:49;12.65;;;4.97;;
40815;SDS011;26535;48.788;9.214;2023-06-14T05:38:15;8.38;;;4.47;;
40815;SDS011;26535;48.788;9.214;2023-06-14T05:40:41;6.80;;;4.43;;
40815;SDS011;26535;48.788;9.214;2023-06-14T05:43:07;8.68;;;4.50;;
40815;SDS011;26535;48.788;9.214;2023-06-14T05:45:32;7.18;;;4.47;;
40815;SDS011;26535;48.788;9.214;2023-06-14T05:47:58;7.20;;;4.40;;
40815;SDS011;26535;48.788;9.214;2023-06-14T05:50:24;7.20;;;4.35;;
40815;SDS011;26535;48.788;9.214;2023-06-14T05:52:50;7.50;;;4.70;;
40815;SDS011;26535;48.788;9.214;2023-06-14T05:55:16;7.53;;;4.25;;
40815;SDS011;26535;48.788;9.214;2023-06-14T05:57:42;7.53;;;4.40;;
40815;SDS011;26535;48.788;9.214;2023-06-14T06:00:08;7.07;;;4.57;;
40815;SDS011;26535;48.788;9.214;2023-06-14T06:02:42;8.68;;;4.82;;
40815;SDS011;26535;48.788;9.214;2023-06-14T06:05:09;7.95;;;4.50;;
40815;SDS011;26535;48.788;9.214;2023-06-14T06:07:35;11.18;;;4.30;;
40815;SDS011;26535;48.788;9.214;2023-06-14T06:10:02;9.55;;;4.88;;
40815;SDS011;26535;48.788;9.214;2023-06-14T06:12:28;9.15;;;4.60;;
40815;SDS011;26535;48.788;9.214;2023-06-14T06:14:54;9.15;;;4.53;;
40815;SDS011;26535;48.788;9.214;2023-06-14T06:17:20;7.50;;;4.65;;
40815;SDS011;26535;48.788;9.214;2023-06-14T06:19:46;8.18;;;4.43;;
40815;SDS011;26535;48.788;9.214;2023-06-14T06:22:11;9.05;;;4.40;;
40815;SDS011;26535;48.788;9.214;2023-06-14T06:24:37;10.23;;;4.30;;
40815;SDS011;26535;48.788;9.214;2023-06-14T06:27:03;9.32;;;4.65;;
40815;SDS011;26535;48.788;9.214;2023-06-14T06:29:29;6.90;;;4.10;;
40815;SDS011;26535;48.788;9.214;2023-06-14T06:31:55;11.80;;;4.40;;
40815;SDS011;26535;48.788;9.214;2023-06-14T06:34:21;7.80;;;4.65;;
40815;SDS011;26535;48.788;9.214;2023-06-14T06:36:47;7.70;;;4.22;;
40815;SDS011;26535;48.788;9.214;2023-06-14T06:39:13;10.70;;;4.20;;
40815;SDS011;26535;48.788;9.214;2023-06-14T06:41:40;10.95;;;4.60;;
40815;SDS011;26535;48.788;9.214;2023-06-14T06:44:06;24.80;;;5.55;;
40815;SDS011;26535;48.788;9.214;2023-06-14T06:46:32;15.43;;;4.68;;
40815;SDS011;26535;48.788;9.214;2023-06-14T06:48:59;9.18;;;5.68;;
40815;SDS011;26535;48.788;9.214;2023-06-14T06:51:25;8.48;;;4.00;;
40815;SDS011;26535;48.788;9.214;2023-06-14T06:53:54;9.88;;;4.20;;
40815;SDS011;26535;48.788;9.214;2023-06-14T06:56:20;7.03;;;3.90;;
40815;SDS011;26535;48.788;9.214;2023-06-14T06:58:51;7.15;;;3.83;;
40815;SDS011;26535;48.788;9.214;2023-06-14T07:01:17;9.50;;;3.75;;
40815;SDS011;26535;48.788;9.214;2023-06-14T07:03:44;5.90;;;3.40;;
40815;SDS011;26535;48.788;9.214;2023-06-14T07:06:11;7.10;;;3.67;;
40815;SDS011;26535;48.788;9.214;2023-06-14T07:08:37;8.02;;;4.28;;
40815;SDS011;26535;48.788;9.214;2023-06-14T07:11:06;9.18;;;4.30;;
40815;SDS011;26535;48.788;9.214;2023-06-14T07:13:32;5.93;;;3.60;;
40815;SDS011;26535;48.788;9.214;2023-06-14T07:15:58;7.05;;;4.13;;
40815;SDS011;26535;48.788;9.214;2023-06-14T07:18:25;7.88;;;3.50;;
40815;SDS011;26535;48.788;9.214;2023-06-14T07:20:52;5.63;;;3.67;;
40815;SDS011;26535;48.788;9.214;2023-06-14T07:23:21;9.10;;;4.18;;
40815;SDS011;26535;48.788;9.214;2023-06-14T07:25:46;8.80;;;3.40;;
40815;SDS011;26535;48.788;9.214;2023-06-14T07:28:12;14.18;;;3.80;;
40815;SDS011;26535;48.788;9.214;2023-06-14T07:30:38;6.70;;;3.70;;
40815;SDS011;26535;48.788;9.214;2023-06-14T07:33:03;6.35;;;3.17;;
40815;SDS011;26535;48.788;9.214;2023-06-14T07:35:29;5.10;;;3.53;;
40815;SDS011;26535;48.788;9.214;2023-06-14T07:37:55;7.30;;;3.60;;
40815;SDS011;26535;48.788;9.214;2023-06-14T07:40:21;8.07;;;3.63;;
40815;SDS011;26535;48.788;9.214;2023-06-14T07:42:46;11.02;;;3.53;;
40815;SDS011;26535;48.788;9.214;2023-06-14T07:45:15;6.18;;;3.38;;
40815;SDS011;26535;48.788;9.214;2023-06-14T07:47:41;8.68;;;3.70;;
40815;SDS011;26535;48.788;9.214;2023-06-14T07:50:07;11.25;;;6.45;;
40815;SDS011;26535;48.788;9.214;2023-06-14T07:52:35;7.05;;;3.53;;
40815;SDS011;26535;48.788;9.214;2023-06-14T07:55:00;11.38;;;4.38;;
40815;SDS011;26535;48.788;9.214;2023-06-14T07:57:26;6.88;;;3.85;;
40815;SDS011;26535;48.788;9.214;2023-06-14T07:59:52;7.68;;;3.80;;
40815;SDS011;26535;48.788;9.214;2023-06-14T08:02:18;6.85;;;3.80;;
40815;SDS011;26535;48.788;9.214;2023-06-14T08:04:43;12.00;;;4.22;;
40815;SDS011;26535;48.788;9.214;2023-06-14T08:07:09;8.63;;;3.75;;
40815;SDS011;26535;48.788;9.214;2023-06-14T08:09:35;5.65;;;4.13;;
40815;SDS011;26535;48.788;9.214;2023-06-14T08:12:04;8.60;;;3.88;;
40815;SDS011;26535;48.788;9.214;2023-06-14T08:14:37;9.27;;;4.13;;
40815;SDS011;26535;48.788;9.214;2023-06-14T08:17:04;8.25;;;3.55;;
40815;SDS011;26535;48.788;9.214;2023-06-14T08:19:30;7.70;;;4.10;;
40815;SDS011;26535;48.788;9.214;2023-06-14T08:21:56;8.73;;;4.00;;
40815;SDS011;26535;48.788;9.214;2023-06-14T08:24:22;6.70;;;4.25;;
40815;SDS011;26535;48.788;9.214;2023-06-14T08:26:52;6.57;;;3.95;;
40815;SDS011;26535;48.788;9.214;2023-06-14T08:29:18;7.07;;;3.63;;
40815;SDS011;26535;48.788;9.214;2023-06-14T08:31:44;6.90;;;3.33;;
40815;SDS011;26535;48.788;9.214;2023-06-14T08:34:10;6.75;;;3.88;;
40815;SDS011;26535;48.788;9.214;2023-06-14T08:36:36;6.63;;;3.50;;
40815;SDS011;26535;48.788;9.214;2023-06-14T08:39:02;14.57;;;9.57;;
40815;SDS011;26535;48.788;9.214;2023-06-14T08:41:28;7.72;;;4.65;;
40815;SDS011;26535;48.788;9.214;2023-06-14T08:43:54;6.53;;;3.70;;
40815;SDS011;26535;48.788;9.214;2023-06-14T08:46:21;5.78;;;3.13;;
40815;SDS011;26535;48.788;9.214;2023-06-14T08:48:52;9.07;;;3.83;;
40815;SDS011;26535;48.788;9.214;2023-06-14T08:51:22;7.28;;;3.58;;
40815;SDS011;26535;48.788;9.214;2023-06-14T08:53:53;7.68;;;3.15;;
40815;SDS011;26535;48.788;9.214;2023-06-14T08:56:26;8.50;;;3.92;;
40815;SDS011;26535;48.788;9.214;2023-06-14T08:58:59;7.80;;;3.83;;
40815;SDS011;26535;48.788;9.214;2023-06-14T09:01:30;7.22;;;3.50;;
40815;SDS011;26535;48.788;9.214;2023-06-14T09:03:59;9.40;;;3.90;;
40815;SDS011;26535;48.788;9.214;2023-06-14T09:06:25;8.85;;;3.88;;
40815;SDS011;26535;48.788;9.214;2023-06-14T09:08:54;6.72;;;3.42;;
40815;SDS011;26535;48.788;9.214;2023-06-14T09:11:22;10.65;;;3.35;;
40815;SDS011;26535;48.788;9.214;2023-06-14T09:13:48;7.22;;;4.53;;
40815;SDS011;26535;48.788;9.214;2023-06-14T09:16:15;7.88;;;3.80;;
40815;SDS011;26535;48.788;9.214;2023-06-14T09:18:42;5.40;;;3.35;;
40815;SDS011;26535;48.788;9.214;2023-06-14T09:21:15;5.55;;;3.33;;
40815;SDS011;26535;48.788;9.214;2023-06-14T09:23:45;5.22;;;3.03;;
40815;SDS011;26535;48.788;9.214;2023-06-14T09:26:21;7.88;;;3.67;;
40815;SDS011;26535;48.788;9.214;2023-06-14T09:28:48;8.73;;;3.38;;
40815;SDS011;26535;48.788;9.214;2023-06-14T09:31:19;8.10;;;3.80;;
40815;SDS011;26535;48.788;9.214;2023-06-14T09:33:46;8.30;;;3.38;;
40815;SDS011;26535;48.788;9.214;2023-06-14T09:36:17;7.20;;;3.20;;
40815;SDS011;26535;48.788;9.214;2023-06-14T09:38:56;7.20;;;3.55;;
40815;SDS011;26535;48.788;9.214;2023-06-14T09:41:33;5.28;;;3.20;;
40815;SDS011;26535;48.788;9.214;2023-06-14T09:44:06;6.53;;;3.03;;
40815;SDS011;26535;48.788;9.214;2023-06-14T09:46:33;5.65;;;3.35;;
40815;SDS011;26535;48.788;9.214;2023-06-14T09:49:00;6.30;;;3.03;;
40815;SDS011;26535;48.788;9.214;2023-06-14T09:51:27;7.05;;;2.97;;
40815;SDS011;26535;48.788;9.214;2023-06-14T09:53:58;7.85;;;3.50;;
40815;SDS011;26535;48.788;9.214;2023-06-14T09:56:29;9.80;;;3.22;;
40815;SDS011;26535;48.788;9.214;2023-06-14T09:58:57;5.53;;;3.53;;
40815;SDS011;26535;48.788;9.214;2023-06-14T10:01:23;5.13;;;3.03;;
40815;SDS011;26535;48.788;9.214;2023-06-14T10:03:56;7.10;;;3.33;;
40815;SDS011;26535;48.788;9.214;2023-06-14T10:06:26;8.10;;;3.33;;
40815;SDS011;26535;48.788;9.214;2023-06-14T10:08:54;5.75;;;3.00;;
40815;SDS011;26535;48.788;9.214;2023-06-14T10:11:25;6.07;;;3.25;;
40815;SDS011;26535;48.788;9.214;2023-06-14T10:13:51;11.98;;;3.35;;
40815;SDS011;26535;48.788;9.214;2023-06-14T10:16:20;5.18;;;2.50;;
40815;SDS011;26535;48.788;9.214;2023-06-14T10:18:49;4.63;;;3.00;;
40815;SDS011;26535;48.788;9.214;2023-06-14T10:21:41;5.93;;;2.63;;
40815;SDS011;26535;48.788;9.214;2023-06-14T10:24:16;5.47;;;2.97;;
40815;SDS011;26535;48.788;9.214;2023-06-14T10:26:57;8.70;;;3.47;;
40815;SDS011;26535;48.788;9.214;2023-06-14T10:29:24;8.93;;;4.15;;
40815;SDS011;26535;48.788;9.214;2023-06-14T10:31:53;7.55;;;4.07;;
40815;SDS011;26535;48.788;9.214;2023-06-14T10:34:25;5.60;;;2.80;;
40815;SDS011;26535;48.788;9.214;2023-06-14T10:37:04;8.18;;;3.08;;
40815;SDS011;26535;48.788;9.214;2023-06-14T10:39:32;7.78;;;3.40;;
40815;SDS011;26535;48.788;9.214;2023-06-14T10:42:03;5.47;;;3.08;;
40815;SDS011;26535;48.788;9.214;2023-06-14T10:44:41;5.47;;;3.00;;
40815;SDS011;26535;48.788;9.214;2023-06-14T10:47:08;5.78;;;3.00;;
40815;SDS011;26535;48.788;9.214;2023-06-14T10:52:33;7.47;;;3.13;;
40815;SDS011;26535;48.788;9.214;2023-06-14T10:55:10;11.40;;;3.25;;
40815;SDS011;26535;48.788;9.214;2023-06-14T10:57:43;5.57;;;3.13;;
40815;SDS011;26535;48.788;9.214;2023-06-14T11:00:17;7.75;;;3.00;;
40815;SDS011;26535;48.788;9.214;2023-06-14T11:11:16;6.72;;;3.40;;
40815;SDS011;26535;48.788;9.214;2023-06-14T11:13:44;4.15;;;2.85;;
40815;SDS011;26535;48.788;9.214;2023-06-14T11:16:19;5.32;;;2.90;;
40815;SDS011;26535;48.788;9.214;2023-06-14T11:18:45;5.43;;;3.13;;
40815;SDS011;26535;48.788;9.214;2023-06-14T11:21:17;4.78;;;2.67;;
40815;SDS011;26535;48.788;9.214;2023-06-14T11:23:53;6.00;;;2.72;;
40815;SDS011;26535;48.788;9.214;2023-06-14T11:26:27;4.68;;;2.65;;
40815;SDS011;26535;48.788;9.214;2023-06-14T11:28:57;4.78;;;2.58;;
40815;SDS011;26535;48.788;9.214;2023-06-14T11:31:25;8.77;;;3.65;;
40815;SDS011;26535;48.788;9.214;2023-06-14T11:33:55;7.60;;;3.30;;
40815;SDS011;26535;48.788;9.214;2023-06-14T11:36:22;4.85;;;2.97;;
40815;SDS011;26535;48.788;9.214;2023-06-14T11:38:48;4.25;;;2.90;;
40815;SDS011;26535;48.788;9.214;2023-06-14T11:41:14;3.42;;;2.45;;
40815;SDS011;26535;48.788;9.214;2023-06-14T11:43:40;5.78;;;2.72;;
40815;SDS011;26535;48.788;9.214;2023-06-14T11:46:11;4.60;;;2.53;;
40815;SDS011;26535;48.788;9.214;2023-06-14T11:48:42;7.22;;;2.80;;
40815;SDS011;26535;48.788;9.214;2023-06-14T11:51:08;8.10;;;2.85;;
40815;SDS011;26535;48.788;9.214;2023-06-14T11:53:34;7.13;;;2.85;;
40815;SDS011;26535;48.788;9.214;2023-06-14T11:56:00;3.03;;;2.17;;
40815;SDS011;26535;48.788;9.214;2023-06-14T11:58:26;4.00;;;2.53;;
40815;SDS011;26535;48.788;9.214;2023-06-14T12:00:54;7.30;;;2.58;;
40815;SDS011;26535;48.788;9.214;2023-06-14T12:03:23;5.55;;;2.58;;
40815;SDS011;26535;48.788;9.214;2023-06-14T12:06:03;4.60;;;2.67;;
40815;SDS011;26535;48.788;9.214;2023-06-14T12:08:33;7.00;;;2.58;;
40815;SDS011;26535;48.788;9.214;2023-06-14T12:11:13;5.28;;;2.10;;
40815;SDS011;26535;48.788;9.214;2023-06-14T12:13:43;4.00;;;2.40;;
40815;SDS011;26535;48.788;9.214;2023-06-14T12:16:09;4.90;;;2.30;;
40815;SDS011;26535;48.788;9.214;2023-06-14T12:18:36;5.25;;;2.42;;
40815;SDS011;26535;48.788;9.214;2023-06-14T12:21:06;5.50;;;2.60;;
40815;SDS011;26535;48.788;9.214;2023-06-14T12:26:08;4.53;;;2.28;;
40815;SDS011;26535;48.788;9.214;2023-06-14T12:28:34;4.72;;;2.33;;
40815;SDS011;26535;48.788;9.214;2023-06-14T12:31:00;3.65;;;2.28;;
40815;SDS011;26535;48.788;9.214;2023-06-14T12:33:25;4.13;;;2.50;;
40815;SDS011;26535;48.788;9.214;2023-06-14T12:35:54;5.82;;;2.42;;
40815;SDS011;26535;48.788;9.214;2023-06-14T12:38:21;3.63;;;2.00;;
40815;SDS011;26535;48.788;9.214;2023-06-14T12:40:47;2.75;;;2.15;;
40815;SDS011;26535;48.788;9.214;2023-06-14T12:43:13;3.40;;;2.30;;
40815;SDS011;26535;48.788;9.214;2023-06-14T12:45:38;5.68;;;2.40;;
40815;SDS011;26535;48.788;9.214;2023-06-14T12:48:04;8.98;;;3.00;;
40815;SDS011;26535;48.788;9.214;2023-06-14T12:50:30;6.18;;;2.13;;
40815;SDS011;26535;48.788;9.214;2023-06-14T12:52:55;4.40;;;2.40;;
40815;SDS011;26535;48.788;9.214;2023-06-14T12:55:21;4.05;;;2.35;;
40815;SDS011;26535;48.788;9.214;2023-06-14T12:57:47;4.03;;;2.20;;
40815;SDS011;26535;48.788;9.214;2023-06-14T13:00:14;4.45;;;2.50;;
40815;SDS011;26535;48.788;9.214;2023-06-14T13:02:42;5.35;;;2.47;;
40815;SDS011;26535;48.788;9.214;2023-06-14T13:05:08;5.20;;;1.98;;
40815;SDS011;26535;48.788;9.214;2023-06-14T13:07:34;4.32;;;2.40;;
40815;SDS011;26535;48.788;9.214;2023-06-14T13:10:00;9.10;;;2.28;;
40815;SDS011;26535;48.788;9.214;2023-06-14T13:12:26;4.85;;;2.50;;
40815;SDS011;26535;48.788;9.214;2023-06-14T13:14:52;3.28;;;1.80;;
40815;SDS011;26535;48.788;9.214;2023-06-14T13:17:17;4.55;;;2.42;;
40815;SDS011;26535;48.788;9.214;2023-06-14T13:19:43;5.10;;;2.40;;
40815;SDS011;26535;48.788;9.214;2023-06-14T13:22:09;8.25;;;2.63;;
40815;SDS011;26535;48.788;9.214;2023-06-14T13:24:35;3.03;;;2.17;;
40815;SDS011;26535;48.788;9.214;2023-06-14T13:27:01;4.45;;;1.90;;
40815;SDS011;26535;48.788;9.214;2023-06-14T13:29:27;4.28;;;2.28;;
40815;SDS011;26535;48.788;9.214;2023-06-14T13:31:53;4.97;;;2.38;;
40815;SDS011;26535;48.788;9.214;2023-06-14T13:34:19;5.15;;;2.35;;
40815;SDS011;26535;48.788;9.214;2023-06-14T13:36:45;6.78;;;2.80;;
40815;SDS011;26535;48.788;9.214;2023-06-14T13:39:10;6.63;;;2.67;;
40815;SDS011;26535;48.788;9.214;2023-06-14T13:41:37;5.05;;;2.65;;
40815;SDS011;26535;48.788;9.214;2023-06-14T13:44:02;6.70;;;2.40;;
40815;SDS011;26535;48.788;9.214;2023-06-14T13:46:29;4.20;;;2.47;;
40815;SDS011;26535;48.788;9.214;2023-06-14T13:48:55;3.28;;;2.58;;
40815;SDS011;26535;48.788;9.214;2023-06-14T13:51:22;4.25;;;2.47;;
40815;SDS011;26535;48.788;9.214;2023-06-14T13:53:48;3.50;;;2.08;;
40815;SDS011;26535;48.788;9.214;2023-06-14T13:56:14;6.10;;;2.42;;
40815;SDS011;26535;48.788;9.214;2023-06-14T13:58:40;3.17;;;1.92;;
40815;SDS011;26535;48.788;9.214;2023-06-14T14:01:07;6.05;;;2.40;;
40815;SDS011;26535;48.788;9.214;2023-06-14T14:03:33;3.47;;;2.17;;
40815;SDS011;26535;48.788;9.214;2023-06-14T14:06:00;3.15;;;2.20;;
40815;SDS011;26535;48.788;9.214;2023-06-14T14:08:27;5.82;;;2.55;;
40815;SDS011;26535;48.788;9.214;2023-06-14T14:10:53;5.75;;;2.22;;
40815;SDS011;26535;48.788;9.214;2023-06-14T14:13:19;4.13;;;2.42;;
40815;SDS011;26535;48.788;9.214;2023-06-14T14:15:46;5.38;;;2.22;;
40815;SDS011;26535;48.788;9.214;2023-06-14T14:18:11;4.18;;;2.10;;
40815;SDS011;26535;48.788;9.214;2023-06-14T14:20:37;3.28;;;2.17;;
40815;SDS011;26535;48.788;9.214;2023-06-14T14:23:03;5.03;;;2.33;;
40815;SDS011;26535;48.788;9.214;2023-06-14T14:25:29;6.53;;;2.85;;
40815;SDS011;26535;48.788;9.214;2023-06-14T14:27:55;6.07;;;2.33;;
40815;SDS011;26535;48.788;9.214;2023-06-14T14:30:21;4.38;;;2.47;;
40815;SDS011;26535;48.788;9.214;2023-06-14T14:32:49;4.95;;;2.22;;
40815;SDS011;26535;48.788;9.214;2023-06-14T14:35:16;3.67;;;2.65;;
40815;SDS011;26535;48.788;9.214;2023-06-14T14:37:42;4.05;;;2.75;;
40815;SDS011;26535;48.788;9.214;2023-06-14T14:40:09;6.03;;;2.75;;
40815;SDS011;26535;48.788;9.214;2023-06-14T14:42:35;5.50;;;2.50;;
40815;SDS011;26535;48.788;9.214;2023-06-14T14:45:02;3.95;;;2.47;;
40815;SDS011;26535;48.788;9.214;2023-06-14T14:47:28;3.10;;;2.25;;
40815;SDS011;26535;48.788;9.214;2023-06-14T14:49:54;4.65;;;2.50;;
40815;SDS011;26535;48.788;9.214;2023-06-14T14:52:20;4.15;;;2.50;;
40815;SDS011;26535;48.788;9.214;2023-06-14T14:54:45;3.00;;;2.10;;
40815;SDS011;26535;48.788;9.214;2023-06-14T14:57:11;3.47;;;2.17;;
40815;SDS011;26535;48.788;9.214;2023-06-14T14:59:37;5.32;;;2.25;;
40815;SDS011;26535;48.788;9.214;2023-06-14T15:02:02;3.90;;;1.88;;
40815;SDS011;26535;48.788;9.214;2023-06-14T15:04:28;3.42;;;2.20;;
40815;SDS011;26535;48.788;9.214;2023-06-14T15:06:54;3.22;;;2.17;;
40815;SDS011;26535;48.788;9.214;2023-06-14T15:09:20;4.63;;;2.10;;
40815;SDS011;26535;48.788;9.214;2023-06-14T15:11:45;4.20;;;2.10;;
40815;SDS011;26535;48.788;9.214;2023-06-14T15:14:11;8.32;;;2.30;;
40815;SDS011;26535;48.788;9.214;2023-06-14T15:16:37;4.10;;;2.00;;
40815;SDS011;26535;48.788;9.214;2023-06-14T15:19:03;4.47;;;2.17;;
40815;SDS011;26535;48.788;9.214;2023-06-14T15:21:28;3.97;;;2.15;;
40815;SDS011;26535;48.788;9.214;2023-06-14T15:23:54;4.60;;;2.00;;
40815;SDS011;26535;48.788;9.214;2023-06-14T15:26:20;4.25;;;2.08;;
40815;SDS011;26535;48.788;9.214;2023-06-14T15:28:46;4.15;;;1.90;;
40815;SDS011;26535;48.788;9.214;2023-06-14T15:31:11;4.07;;;2.22;;
40815;SDS011;26535;48.788;9.214;2023-06-14T15:33:37;3.33;;;1.95;;
40815;SDS011;26535;48.788;9.214;2023-06-14T15:36:03;3.97;;;2.20;;
40815;SDS011;26535;48.788;9.214;2023-06-14T15:38:31;3.40;;;2.00;;
40815;SDS011;26535;48.788;9.214;2023-06-14T15:40:57;4.77;;;2.17;;
40815;SDS011;26535;48.788;9.214;2023-06-14T15:43:23;3.28;;;2.00;;
40815;SDS011;26535;48.788;9.214;2023-06-14T15:45:48;4.63;;;2.00;;
40815;SDS011;26535;48.788;9.214;2023-06-14T15:48:14;4.90;;;2.00;;
40815;SDS011;26535;48.788;9.214;2023-06-14T15:50:40;4.25;;;2.10;;
40815;SDS011;26535;48.788;9.214;2023-06-14T15:53:06;3.83;;;2.10;;
40815;SDS011;26535;48.788;9.214;2023-06-14T15:55:31;4.88;;;2.55;;
40815;SDS011;26535;48.788;9.214;2023-06-14T15:57:57;3.53;;;2.10;;
40815;SDS011;26535;48.788;9.214;2023-06-14T16:00:23;4.20;;;2.10;;
40815;SDS011;26535;48.788;9.214;2023-06-14T16:02:53;6.90;;;2.47;;
40815;SDS011;26535;48.788;9.214;2023-06-14T16:05:18;3.85;;;2.10;;
40815;SDS011;26535;48.788;9.214;2023-06-14T16:07:44;3.72;;;2.30;;
40815;SDS011;26535;48.788;9.214;2023-06-14T16:10:10;4.22;;;1.95;;
40815;SDS011;26535;48.788;9.214;2023-06-14T16:12:36;4.25;;;2.33;;
40815;SDS011;26535;48.788;9.214;2023-06-14T16:15:02;4.70;;;2.33;;
40815;SDS011;26535;48.788;9.214;2023-06-14T16:20:44;4.63;;;2.40;;
40815;SDS011;26535;48.788;9.214;2023-06-14T16:23:10;3.60;;;1.92;;
40815;SDS011;26535;48.788;9.214;2023-06-14T16:25:35;4.82;;;2.20;;
40815;SDS011;26535;48.788;9.214;2023-06-14T16:28:02;4.20;;;2.30;;
40815;SDS011;26535;48.788;9.214;2023-06-14T16:30:27;4.53;;;2.10;;
40815;SDS011;26535;48.788;9.214;2023-06-14T16:32:53;3.92;;;2.05;;
40815;SDS011;26535;48.788;9.214;2023-06-14T16:35:19;5.93;;;2.33;;
40815;SDS011;26535;48.788;9.214;2023-06-14T16:37:45;5.10;;;2.05;;
40815;SDS011;26535;48.788;9.214;2023-06-14T16:40:11;2.80;;;1.80;;
40815;SDS011;26535;48.788;9.214;2023-06-14T16:42:36;3.38;;;2.10;;
40815;SDS011;26535;48.788;9.214;2023-06-14T16:45:02;6.68;;;2.65;;
40815;SDS011;26535;48.788;9.214;2023-06-14T16:47:28;4.55;;;2.33;;
40815;SDS011;26535;48.788;9.214;2023-06-14T16:49:55;5.47;;;2.70;;
40815;SDS011;26535;48.788;9.214;2023-06-14T16:52:20;3.05;;;2.22;;
40815;SDS011;26535;48.788;9.214;2023-06-14T16:54:46;4.30;;;2.47;;
40815;SDS011;26535;48.788;9.214;2023-06-14T16:57:12;3.97;;;2.42;;
40815;SDS011;26535;48.788;9.214;2023-06-14T16:59:37;6.40;;;2.78;;
40815;SDS011;26535;48.788;9.214;2023-06-14T17:02:03;5.05;;;2.88;;
40815;SDS011;26535;48.788;9.214;2023-06-14T17:04:29;4.10;;;2.42;;
40815;SDS011;26535;48.788;9.214;2023-06-14T17:06:56;5.60;;;2.70;;
40815;SDS011;26535;48.788;9.214;2023-06-14T17:09:22;7.22;;;3.22;;
40815;SDS011;26535;48.788;9.214;2023-06-14T17:11:48;6.55;;;2.47;;
40815;SDS011;26535;48.788;9.214;2023-06-14T17:14:14;5.88;;;2.55;;
40815;SDS011;26535;48.788;9.214;2023-06-14T17:16:40;3.30;;;2.20;;
40815;SDS011;26535;48.788;9.214;2023-06-14T17:19:06;4.57;;;2.30;;
40815;SDS011;26535;48.788;9.214;2023-06-14T17:21:32;4.35;;;2.47;;
40815;SDS011;26535;48.788;9.214;2023-06-14T17:23:58;5.35;;;2.63;;
40815;SDS011;26535;48.788;9.214;2023-06-14T17:26:24;4.05;;;2.50;;
40815;SDS011;26535;48.788;9.214;2023-06-14T17:28:56;5.57;;;2.65;;
40815;SDS011;26535;48.788;9.214;2023-06-14T17:31:21;5.13;;;2.72;;
40815;SDS011;26535;48.788;9.214;2023-06-14T17:33:47;4.03;;;2.53;;
40815;SDS011;26535;48.788;9.214;2023-06-14T17:36:13;3.70;;;2.50;;
40815;SDS011;26535;48.788;9.214;2023-06-14T17:38:38;3.47;;;2.30;;
40815;SDS011;26535;48.788;9.214;2023-06-14T17:41:04;4.25;;;2.30;;
40815;SDS011;26535;48.788;9.214;2023-06-14T17:43:36;6.57;;;2.60;;
40815;SDS011;26535;48.788;9.214;2023-06-14T17:46:02;4.00;;;2.90;;
40815;SDS011;26535;48.788;9.214;2023-06-14T17:48:31;8.65;;;2.22;;
40815;SDS011;26535;48.788;9.214;2023-06-14T17:51:02;5.82;;;2.40;;
40815;SDS011;26535;48.788;9.214;2023-06-14T17:53:31;4.40;;;2.78;;
40815;SDS011;26535;48.788;9.214;2023-06-14T17:55:57;4.28;;;2.50;;
40815;SDS011;26535;48.788;9.214;2023-06-14T17:58:23;3.65;;;2.60;;
40815;SDS011;26535;48.788;9.214;2023-06-14T18:00:49;5.30;;;3.08;;
40815;SDS011;26535;48.788;9.214;2023-06-14T18:03:16;3.88;;;2.60;;
40815;SDS011;26535;48.788;9.214;2023-06-14T18:05:43;4.83;;;2.70;;
40815;SDS011;26535;48.788;9.214;2023-06-14T18:08:10;6.20;;;2.63;;
40815;SDS011;26535;48.788;9.214;2023-06-14T18:10:36;3.97;;;2.50;;
40815;SDS011;26535;48.788;9.214;2023-06-14T18:13:02;5.68;;;2.47;;
40815;SDS011;26535;48.788;9.214;2023-06-14T18:15:28;4.20;;;2.58;;
40815;SDS011;26535;48.788;9.214;2023-06-14T18:17:54;7.00;;;2.67;;
40815;SDS011;26535;48.788;9.214;2023-06-14T18:20:23;3.95;;;2.60;;
40815;SDS011;26535;48.788;9.214;2023-06-14T18:22:49;7.47;;;3.15;;
40815;SDS011;26535;48.788;9.214;2023-06-14T18:25:15;7.00;;;3.53;;
40815;SDS011;26535;48.788;9.214;2023-06-14T18:27:46;6.45;;;3.55;;
40815;SDS011;26535;48.788;9.214;2023-06-14T18:30:12;5.07;;;2.60;;
40815;SDS011;26535;48.788;9.214;2023-06-14T18:32:38;6.30;;;2.78;;
40815;SDS011;26535;48.788;9.214;2023-06-14T18:35:06;6.25;;;3.05;;
40815;SDS011;26535;48.788;9.214;2023-06-14T18:37:32;6.60;;;3.00;;
40815;SDS011;26535;48.788;9.214;2023-06-14T18:39:58;6.45;;;3.10;;
40815;SDS011;26535;48.788;9.214;2023-06-14T18:42:25;6.00;;;3.65;;
40815;SDS011;26535;48.788;9.214;2023-06-14T18:44:51;5.15;;;3.80;;
40815;SDS011;26535;48.788;9.214;2023-06-14T18:47:17;6.70;;;3.58;;
40815;SDS011;26535;48.788;9.214;2023-06-14T18:49:43;5.85;;;3.45;;
40815;SDS011;26535;48.788;9.214;2023-06-14T18:52:09;5.07;;;2.83;;
40815;SDS011;26535;48.788;9.214;2023-06-14T18:54:35;5.60;;;2.92;;
40815;SDS011;26535;48.788;9.214;2023-06-14T18:57:01;7.50;;;3.28;;
40815;SDS011;26535;48.788;9.214;2023-06-14T18:59:27;9.07;;;3.50;;
40815;SDS011;26535;48.788;9.214;2023-06-14T19:01:53;5.10;;;3.20;;
40815;SDS011;26535;48.788;9.214;2023-06-14T19:04:19;5.00;;;3.08;;
40815;SDS011;26535;48.788;9.214;2023-06-14T19:06:46;6.47;;;3.28;;
40815;SDS011;26535;48.788;9.214;2023-06-14T19:09:12;5.25;;;2.90;;
40815;SDS011;26535;48.788;9.214;2023-06-14T19:11:40;7.75;;;5.45;;
40815;SDS011;26535;48.788;9.214;2023-06-14T19:14:07;11.07;;;7.53;;
40815;SDS011;26535;48.788;9.214;2023-06-14T19:16:33;8.00;;;3.72;;
40815;SDS011;26535;48.788;9.214;2023-06-14T19:18:59;11.73;;;3.92;;
40815;SDS011;26535;48.788;9.214;2023-06-14T19:21:28;7.90;;;3.40;;
40815;SDS011;26535;48.788;9.214;2023-06-14T19:26:21;6.18;;;3.25;;
40815;SDS011;26535;48.788;9.214;2023-06-14T19:28:50;4.60;;;3.28;;
40815;SDS011;26535;48.788;9.214;2023-06-14T19:31:16;7.88;;;3.08;;
40815;SDS011;26535;48.788;9.214;2023-06-14T19:33:41;8.00;;;3.45;;
40815;SDS011;26535;48.788;9.214;2023-06-14T19:36:07;9.05;;;4.05;;
40815;SDS011;26535;48.788;9.214;2023-06-14T19:38:33;6.43;;;3.92;;
40815;SDS011;26535;48.788;9.214;2023-06-14T19:40:59;6.30;;;4.53;;
40815;SDS011;26535;48.788;9.214;2023-06-14T19:43:25;12.02;;;3.97;;
40815;SDS011;26535;48.788;9.214;2023-06-14T19:45:51;8.85;;;4.60;;
40815;SDS011;26535;48.788;9.214;2023-06-14T19:48:16;11.85;;;7.13;;
40815;SDS011;26535;48.788;9.214;2023-06-14T19:50:42;36.00;;;19.63;;
40815;SDS011;26535;48.788;9.214;2023-06-14T19:53:09;23.92;;;11.98;;
40815;SDS011;26535;48.788;9.214;2023-06-14T19:55:35;38.55;;;18.77;;
40815;SDS011;26535;48.788;9.214;2023-06-14T19:58:01;17.83;;;8.48;;
40815;SDS011;26535;48.788;9.214;2023-06-14T20:00:27;18.15;;;9.40;;
40815;SDS011;26535;48.788;9.214;2023-06-14T20:02:53;13.57;;;5.50;;
40815;SDS011;26535;48.788;9.214;2023-06-14T20:05:19;8.38;;;5.30;;
40815;SDS011;26535;48.788;9.214;2023-06-14T20:07:45;8.43;;;5.18;;